createdAt,value
2022-11-20T00:01:27.685Z,94086.06
2022-11-20T00:03:56.794Z,94084.44
2022-11-20T00:06:24.594Z,94088.94
2022-11-20T00:08:52.160Z,94089.28
2022-11-20T00:11:24.669Z,94095.25
2022-11-20T00:13:54.740Z,94091.88
2022-11-20T00:16:27.846Z,94086.56
2022-11-20T00:18:55.462Z,94097.88
2022-11-20T00:21:28.198Z,94092.97
2022-11-20T00:23:56.885Z,94099.66
2022-11-20T00:26:26.401Z,94103.31
2022-11-20T00:29:02.765Z,94111.91
2022-11-20T00:31:31.118Z,94108.88
2022-11-20T00:33:58.754Z,94100.28
2022-11-20T00:36:28.432Z,94106.84
2022-11-20T00:38:58.011Z,94107.69
2022-11-20T00:41:26.556Z,94101.41
2022-11-20T00:43:55.428Z,94109.44
2022-11-20T00:46:25.536Z,94115.69
2022-11-20T00:48:52.602Z,94112.34
2022-11-20T00:51:22.688Z,94115.50
2022-11-20T00:53:50.481Z,94115.81
2022-11-20T00:56:19.781Z,94115.09
2022-11-20T00:58:49.280Z,94121.09
2022-11-20T01:01:23.139Z,94113.53
2022-11-20T01:03:51.882Z,94130.72
2022-11-20T01:06:21.617Z,94128.50
2022-11-20T01:08:49.693Z,94123.00
2022-11-20T01:11:23.423Z,94126.31
2022-11-20T01:13:53.035Z,94135.03
2022-11-20T01:16:29.837Z,94114.31
2022-11-20T01:19:00.903Z,94125.97
2022-11-20T01:21:35.216Z,94116.66
2022-11-20T01:24:03.356Z,94117.41
2022-11-20T01:26:34.632Z,94130.78
2022-11-20T01:29:02.288Z,94123.97
2022-11-20T01:31:37.360Z,94130.47
2022-11-20T01:34:12.037Z,94137.16
2022-11-20T01:36:40.043Z,94144.69
2022-11-20T01:39:20.496Z,94146.31
2022-11-20T01:42:11.110Z,94147.72
2022-11-20T01:44:59.568Z,94143.03
2022-11-20T01:47:39.589Z,94145.50
2022-11-20T01:50:23.431Z,94160.72
2022-11-20T01:52:55.619Z,94146.63
2022-11-20T01:55:38.551Z,94153.94
2022-11-20T01:58:05.881Z,94148.50
2022-11-20T02:00:33.052Z,94160.53
2022-11-20T02:03:08.032Z,94149.91
2022-11-20T02:05:47.695Z,94158.38
2022-11-20T02:08:15.110Z,94134.75
2022-11-20T02:10:41.884Z,94137.13
2022-11-20T02:13:28.393Z,94147.78
2022-11-20T02:15:55.682Z,94141.53
2022-11-20T02:18:23.277Z,94138.03
2022-11-20T02:20:58.355Z,94150.22
2022-11-20T02:23:35.623Z,94134.84
2022-11-20T02:26:07.835Z,94136.56
2022-11-20T02:28:34.836Z,94136.56
2022-11-20T02:31:02.260Z,94130.59
2022-11-20T02:33:28.989Z,94124.00
2022-11-20T02:35:55.767Z,94136.22
2022-11-20T02:38:22.749Z,94138.34
2022-11-20T02:40:55.103Z,94136.72
2022-11-20T02:43:22.409Z,94133.16
2022-11-20T02:45:49.133Z,94129.88
2022-11-20T02:48:15.963Z,94131.16
2022-11-20T02:50:42.801Z,94139.53
2022-11-20T02:53:09.684Z,94141.72
2022-11-20T02:55:37.276Z,94129.16
2022-11-20T02:58:04.315Z,94139.84
2022-11-20T03:00:32.995Z,94138.31
2022-11-20T03:02:59.781Z,94139.44
2022-11-20T03:05:26.518Z,94135.91
2022-11-20T03:07:53.365Z,94137.53
2022-11-20T03:10:20.147Z,94129.06
2022-11-20T03:12:46.854Z,94131.03
2022-11-20T03:15:13.611Z,94133.75
2022-11-20T03:17:40.341Z,94132.56
2022-11-20T03:20:08.512Z,94131.03
2022-11-20T03:22:35.208Z,94126.06
2022-11-20T03:25:01.931Z,94128.53
2022-11-20T03:27:33.293Z,94130.84
2022-11-20T03:30:00.006Z,94137.47
2022-11-20T03:32:26.741Z,94130.16
2022-11-20T03:34:53.501Z,94131.56
2022-11-20T03:37:20.502Z,94117.72
2022-11-20T03:39:47.223Z,94125.91
2022-11-20T03:42:32.744Z,94116.59
2022-11-20T03:44:59.446Z,94124.69
2022-11-20T03:47:26.493Z,94126.81
2022-11-20T03:49:53.216Z,94116.41
2022-11-20T03:52:20.052Z,94121.47
2022-11-20T03:54:46.777Z,94121.84
2022-11-20T03:57:13.503Z,94124.78
2022-11-20T03:59:40.291Z,94122.66
2022-11-20T04:02:07.195Z,94108.66
2022-11-20T04:04:34.001Z,94120.47
2022-11-20T04:07:00.777Z,94125.09
2022-11-20T04:09:27.621Z,94124.16
2022-11-20T04:11:54.360Z,94128.50
2022-11-20T04:14:21.133Z,94115.91
2022-11-20T04:16:47.964Z,94118.41
2022-11-20T04:19:17.042Z,94119.53
2022-11-20T04:21:45.205Z,94129.34
2022-11-20T04:24:12.411Z,94123.22
2022-11-20T04:26:40.120Z,94118.31
2022-11-20T04:29:07.089Z,94118.31
2022-11-20T04:31:35.640Z,94112.56
2022-11-20T04:34:05.519Z,94116.13
2022-11-20T04:36:32.880Z,94119.53
2022-11-20T04:39:04.023Z,94119.31
2022-11-20T04:41:34.272Z,94121.53
2022-11-20T04:44:05.837Z,94128.75
2022-11-20T04:46:39.708Z,94124.16
2022-11-20T04:49:07.471Z,94127.31
2022-11-20T04:51:35.054Z,94131.09
2022-11-20T04:54:01.956Z,94132.75
2022-11-20T04:56:28.726Z,94123.59
2022-11-20T04:58:55.538Z,94115.72
2022-11-20T05:01:25.333Z,94138.91
2022-11-20T05:03:52.771Z,94145.69
2022-11-20T05:06:23.392Z,94144.56
2022-11-20T05:08:50.643Z,94137.97
2022-11-20T05:11:21.243Z,94144.41
2022-11-20T05:13:48.845Z,94138.44
2022-11-20T05:16:24.854Z,94142.56
2022-11-20T05:18:53.905Z,94141.84
2022-11-20T05:21:21.707Z,94147.38
2022-11-20T05:23:48.518Z,94146.66
2022-11-20T05:26:22.492Z,94148.06
2022-11-20T05:28:50.740Z,94140.09
2022-11-20T05:31:26.730Z,94148.78
2022-11-20T05:33:56.164Z,94156.31
2022-11-20T05:36:22.922Z,94152.31
2022-11-20T05:38:51.171Z,94149.47
2022-11-20T05:41:20.816Z,94151.72
2022-11-20T05:43:49.234Z,94148.19
2022-11-20T05:46:28.301Z,94133.72
2022-11-20T05:48:57.783Z,94137.59
2022-11-20T05:51:25.309Z,94128.66
2022-11-20T05:53:52.021Z,94134.66
2022-11-20T05:56:21.452Z,94138.16
2022-11-20T05:58:49.390Z,94125.91
2022-11-20T06:01:23.533Z,94131.09
2022-11-20T06:03:51.948Z,94129.78
2022-11-20T06:06:20.635Z,94126.28
2022-11-20T06:08:47.936Z,94137.44
2022-11-20T06:11:16.604Z,94123.56
2022-11-20T06:13:45.340Z,94132.25
2022-11-20T06:16:14.924Z,94123.22
2022-11-20T06:18:41.759Z,94123.31
2022-11-20T06:21:12.412Z,94129.47
2022-11-20T06:23:39.547Z,94118.16
2022-11-20T06:26:12.247Z,94124.50
2022-11-20T06:28:39.447Z,94123.59
2022-11-20T06:31:07.978Z,94137.66
2022-11-20T06:33:34.775Z,94142.84
2022-11-20T06:36:05.879Z,94135.81
2022-11-20T06:38:40.223Z,94140.41
2022-11-20T06:41:12.629Z,94144.19
2022-11-20T06:43:39.547Z,94156.50
2022-11-20T06:46:06.623Z,94149.47
2022-11-20T06:48:34.088Z,94149.56
2022-11-20T06:51:02.053Z,94148.66
2022-11-20T06:53:28.749Z,94151.34
2022-11-20T06:55:57.843Z,94137.72
2022-11-20T06:58:27.668Z,94150.75
2022-11-20T07:00:54.734Z,94153.25
2022-11-20T07:03:21.473Z,94158.66
2022-11-20T07:05:48.264Z,94175.38
2022-11-20T07:08:15.017Z,94173.00
2022-11-20T07:10:41.751Z,94171.50
2022-11-20T07:13:08.457Z,94176.78
2022-11-20T07:15:35.236Z,94165.47
2022-11-20T07:18:02.712Z,94159.13
2022-11-20T07:20:29.608Z,94160.56
2022-11-20T07:22:58.675Z,94170.88
2022-11-20T07:25:27.131Z,94179.94
2022-11-20T07:27:57.552Z,94181.22
2022-11-20T07:30:24.263Z,94172.06
2022-11-20T07:32:55.446Z,94168.97
2022-11-20T07:35:23.865Z,94167.91
2022-11-20T07:37:50.673Z,94186.34
2022-11-20T07:40:18.715Z,94179.28
2022-11-20T07:42:53.312Z,94192.91
2022-11-20T07:45:21.865Z,94181.38
2022-11-20T07:47:49.153Z,94180.88
2022-11-20T07:50:16.394Z,94173.81
2022-11-20T07:52:43.265Z,94173.69
2022-11-20T07:55:10.876Z,94187.41
2022-11-20T07:57:37.731Z,94185.41
2022-11-20T08:00:10.275Z,94175.59
2022-11-20T08:02:42.703Z,94171.53
2022-11-20T08:05:11.240Z,94170.91
2022-11-20T08:07:43.034Z,94174.63
2022-11-20T08:10:14.702Z,94174.19
2022-11-20T08:13:11.292Z,94188.28
2022-11-20T08:15:40.206Z,94185.06
2022-11-20T08:18:30.467Z,94186.50
2022-11-20T08:20:57.751Z,94178.56
2022-11-20T08:23:24.819Z,94189.84
2022-11-20T08:25:52.336Z,94192.03
2022-11-20T08:28:21.752Z,94196.28
2022-11-20T08:30:51.150Z,94195.94
2022-11-20T08:33:19.157Z,94202.06
2022-11-20T08:35:46.199Z,94190.22
2022-11-20T08:38:12.921Z,94187.88
2022-11-20T08:40:39.696Z,94185.91
2022-11-20T08:43:06.439Z,94192.09
2022-11-20T08:45:35.015Z,94185.59
2022-11-20T08:48:04.163Z,94190.94
2022-11-20T08:50:33.496Z,94190.94
2022-11-20T08:53:07.383Z,94193.66
2022-11-20T08:55:36.627Z,94194.91
2022-11-20T08:58:07.865Z,94196.72
2022-11-20T09:00:35.472Z,94184.41
2022-11-20T09:03:02.695Z,94178.00
2022-11-20T09:05:29.859Z,94185.09
2022-11-20T09:08:00.409Z,94191.25
2022-11-20T09:10:28.556Z,94192.06
2022-11-20T09:12:56.644Z,94182.47
2022-11-20T09:15:24.629Z,94188.22
2022-11-20T09:18:07.541Z,94183.13
2022-11-20T09:20:34.351Z,94173.09
2022-11-20T09:23:01.064Z,94181.84
2022-11-20T09:25:28.012Z,94183.22
2022-11-20T09:27:58.909Z,94181.69
2022-11-20T09:30:26.362Z,94184.50
2022-11-20T09:32:53.163Z,94183.63
2022-11-20T09:35:20.083Z,94185.25
2022-11-20T09:37:47.116Z,94188.47
2022-11-20T09:40:30.588Z,94179.56
2022-11-20T09:43:43.493Z,94181.56
2022-11-20T09:46:38.667Z,94181.38
2022-11-20T09:49:34.795Z,94188.56
2022-11-20T09:52:23.837Z,94184.09
2022-11-20T09:54:52.114Z,94182.97
2022-11-20T09:57:26.710Z,94188.78
2022-11-20T10:00:01.060Z,94187.25
2022-11-20T10:02:58.985Z,94188.28
2022-11-20T10:05:36.996Z,94184.72
2022-11-20T10:08:41.693Z,94189.47
2022-11-20T10:11:45.730Z,94187.69
2022-11-20T10:14:36.888Z,94187.78
2022-11-20T10:17:22.974Z,94180.34
2022-11-20T10:20:17.557Z,94186.47
2022-11-20T10:23:11.327Z,94180.28
2022-11-20T10:26:18.705Z,94184.38
2022-11-20T10:29:12.838Z,94181.50
2022-11-20T10:31:43.658Z,94180.53
2022-11-20T10:34:34.247Z,94189.53
2022-11-20T10:37:16.046Z,94184.81
2022-11-20T10:39:54.293Z,94187.94
2022-11-20T10:42:46.275Z,94170.19
2022-11-20T10:45:25.557Z,94188.22
2022-11-20T10:48:14.341Z,94183.31
2022-11-20T10:51:01.208Z,94181.06
2022-11-20T10:53:55.690Z,94178.13
2022-11-20T10:56:32.649Z,94181.78
2022-11-20T10:59:26.303Z,94175.94
2022-11-20T11:01:53.145Z,94173.97
2022-11-20T11:04:33.785Z,94179.69
2022-11-20T11:07:28.000Z,94178.72
2022-11-20T11:09:57.539Z,94163.56
2022-11-20T11:12:29.925Z,94177.28
2022-11-20T11:14:58.722Z,94173.38
2022-11-20T11:17:28.646Z,94179.94
2022-11-20T11:20:12.725Z,94166.88
2022-11-20T11:22:56.224Z,94162.66
2022-11-20T11:25:43.293Z,94167.91
2022-11-20T11:28:23.508Z,94161.53
2022-11-20T11:30:50.403Z,94147.94
2022-11-20T11:33:24.028Z,94151.38
2022-11-20T11:35:53.789Z,94151.06
2022-11-20T11:38:32.075Z,94151.25
2022-11-20T11:40:59.136Z,94132.66
2022-11-20T11:43:49.213Z,94146.41
2022-11-20T11:46:21.561Z,94150.97
2022-11-20T11:49:06.340Z,94141.19
2022-11-20T11:52:15.079Z,94138.41
2022-11-20T11:55:11.915Z,94132.38
2022-11-20T11:57:55.853Z,94125.19
2022-11-20T12:00:23.988Z,94122.22
2022-11-20T12:03:23.048Z,94113.56
2022-11-20T12:05:59.162Z,94119.63
2022-11-20T12:08:43.984Z,94110.66
2022-11-20T12:11:25.505Z,94114.25
2022-11-20T12:13:59.419Z,94103.13
2022-11-20T12:16:26.153Z,94097.41
2022-11-20T12:18:54.154Z,94110.03
2022-11-20T12:21:23.904Z,94101.03
2022-11-20T12:24:27.694Z,94093.53
2022-11-20T12:27:15.613Z,94093.53
2022-11-20T12:29:51.420Z,94105.78
2022-11-20T12:32:43.394Z,94089.91
2022-11-20T12:35:31.203Z,94097.75
2022-11-20T12:38:07.381Z,94096.41
2022-11-20T12:40:54.516Z,94101.78
2022-11-20T12:43:50.669Z,94095.09
2022-11-20T12:47:13.597Z,94099.69
2022-11-20T12:50:04.196Z,94089.50
2022-11-20T12:52:48.560Z,94086.19
2022-11-20T12:55:32.682Z,94080.41
2022-11-20T12:58:17.115Z,94084.19
2022-11-20T13:01:43.596Z,94087.03
2022-11-20T13:04:37.276Z,94096.88
2022-11-20T13:07:11.552Z,94091.50
2022-11-20T13:09:45.421Z,94098.38
2022-11-20T13:12:20.351Z,94092.50
2022-11-20T13:14:53.841Z,94084.31
2022-11-20T13:17:44.108Z,94089.41
2022-11-20T13:20:18.599Z,94082.75
2022-11-20T13:22:55.739Z,94078.47
2022-11-20T13:25:28.206Z,94078.16
2022-11-20T13:27:57.916Z,94070.94
2022-11-20T13:30:27.282Z,94070.28
2022-11-20T13:32:58.712Z,94081.09
2022-11-20T13:35:38.440Z,94080.09
2022-11-20T13:38:11.395Z,94087.00
2022-11-20T13:41:21.481Z,94087.31
2022-11-20T13:43:49.223Z,94075.53
2022-11-20T13:46:16.289Z,94062.78
2022-11-20T13:48:46.462Z,94070.78
2022-11-20T13:51:45.533Z,94068.66
2022-11-20T13:54:53.469Z,94072.91
2022-11-20T13:57:33.732Z,94065.03
2022-11-20T14:00:14.002Z,94058.16
2022-11-20T14:02:42.284Z,94059.47
2022-11-20T14:05:23.536Z,94057.16
2022-11-20T14:07:52.773Z,94054.25
2022-11-20T14:10:32.316Z,94046.38
2022-11-20T14:12:59.980Z,94041.81
2022-11-20T14:15:33.695Z,94047.22
2022-11-20T14:18:01.393Z,94035.59
2022-11-20T14:20:32.269Z,94036.38
2022-11-20T14:22:59.099Z,94019.88
2022-11-20T14:25:32.081Z,94030.75
2022-11-20T14:28:00.652Z,94032.56
2022-11-20T14:30:31.416Z,94025.50
2022-11-20T14:33:03.675Z,94025.88
2022-11-20T14:35:35.818Z,94028.34
2022-11-20T14:38:04.414Z,94025.75
2022-11-20T14:40:36.122Z,94029.34
2022-11-20T14:43:19.424Z,94019.25
2022-11-20T14:45:53.165Z,94025.16
2022-11-20T14:48:24.057Z,94034.31
2022-11-20T14:50:50.751Z,94024.81
2022-11-20T14:53:25.413Z,94032.03
2022-11-20T14:56:01.814Z,94035.31
2022-11-20T14:58:34.513Z,94028.59
2022-11-20T15:01:13.180Z,94021.25
2022-11-20T15:03:42.045Z,94012.25
2022-11-20T15:06:13.207Z,94008.81
2022-11-20T15:08:39.964Z,94016.19
2022-11-20T15:11:19.811Z,94003.75
2022-11-20T15:13:46.691Z,93998.69
2022-11-20T15:16:24.065Z,94008.00
2022-11-20T15:18:51.015Z,94003.25
2022-11-20T15:21:20.435Z,93994.75
2022-11-20T15:23:48.360Z,93991.78
2022-11-20T15:26:26.845Z,93984.59
2022-11-20T15:28:54.921Z,93990.81
2022-11-20T15:31:24.402Z,93987.72
2022-11-20T15:33:51.498Z,93982.13
2022-11-20T15:36:18.323Z,93983.44
2022-11-20T15:38:45.124Z,93975.06
2022-11-20T15:41:12.446Z,93984.84
2022-11-20T15:43:39.730Z,93973.22
2022-11-20T15:46:12.084Z,93970.13
2022-11-20T15:48:48.348Z,93973.19
2022-11-20T15:51:40.096Z,93966.13
2022-11-20T15:54:15.976Z,93954.16
2022-11-20T15:56:42.978Z,93960.97
2022-11-20T15:59:09.759Z,93972.19
2022-11-20T16:01:37.085Z,93959.13
2022-11-20T16:04:03.969Z,93959.44
2022-11-20T16:06:30.793Z,93964.66
2022-11-20T16:08:57.530Z,93972.13
2022-11-20T16:11:24.329Z,93967.88
2022-11-20T16:14:09.734Z,93964.88
2022-11-20T16:16:39.698Z,93971.03
2022-11-20T16:19:06.472Z,93971.81
2022-11-20T16:21:33.356Z,93969.81
2022-11-20T16:24:02.793Z,93962.75
2022-11-20T16:26:30.123Z,93966.34
2022-11-20T16:28:56.952Z,93963.31
2022-11-20T16:31:23.990Z,93958.44
2022-11-20T16:33:56.175Z,93962.00
2022-11-20T16:36:26.207Z,93958.38
2022-11-20T16:39:00.995Z,93956.06
2022-11-20T16:41:31.181Z,93941.31
2022-11-20T16:44:01.376Z,93944.59
2022-11-20T16:46:31.491Z,93933.44
2022-11-20T16:49:00.977Z,93938.03
2022-11-20T16:51:30.407Z,93930.16
2022-11-20T16:53:57.525Z,93924.13
2022-11-20T16:56:26.969Z,93924.81
2022-11-20T16:58:57.287Z,93933.75
2022-11-20T17:01:26.343Z,93929.97
2022-11-20T17:04:01.144Z,93937.31
2022-11-20T17:06:32.092Z,93927.50
2022-11-20T17:08:59.596Z,93922.59
2022-11-20T17:11:28.039Z,93925.03
2022-11-20T17:14:00.714Z,93922.28
2022-11-20T17:16:27.710Z,93930.84
2022-11-20T17:19:02.842Z,93937.38
2022-11-20T17:21:31.707Z,93933.97
2022-11-20T17:24:03.313Z,93929.56
2022-11-20T17:26:30.356Z,93925.22
2022-11-20T17:29:06.779Z,93915.13
2022-11-20T17:31:34.892Z,93922.28
2022-11-20T17:34:02.335Z,93926.75
2022-11-20T17:36:30.394Z,93928.03
2022-11-20T17:38:57.466Z,93925.78
2022-11-20T17:41:27.423Z,93923.03
2022-11-20T17:43:57.042Z,93913.06
2022-11-20T17:46:28.205Z,93910.25
2022-11-20T17:48:56.497Z,93911.53
2022-11-20T17:51:26.568Z,93920.75
2022-11-20T17:54:00.772Z,93923.84
2022-11-20T17:56:50.674Z,93922.69
2022-11-20T17:59:18.788Z,93923.03
2022-11-20T18:01:45.719Z,93914.19
2022-11-20T18:04:13.221Z,93916.94
2022-11-20T18:06:40.581Z,93915.28
2022-11-20T18:09:07.864Z,93916.63
2022-11-20T18:11:40.794Z,93916.50
2022-11-20T18:14:29.293Z,93909.66
2022-11-20T18:17:04.379Z,93906.06
2022-11-20T18:19:42.644Z,93902.56
2022-11-20T18:22:19.741Z,93895.06
2022-11-20T18:24:46.519Z,93893.56
2022-11-20T18:27:18.615Z,93890.69
2022-11-20T18:29:48.587Z,93893.28
2022-11-20T18:32:15.370Z,93880.75
2022-11-20T18:34:42.126Z,93884.78
2022-11-20T18:37:09.951Z,93879.00
2022-11-20T18:39:37.155Z,93879.78
2022-11-20T18:42:22.992Z,93874.94
2022-11-20T18:44:53.739Z,93876.22
2022-11-20T18:47:34.162Z,93872.03
2022-11-20T18:50:02.202Z,93875.16
2022-11-20T18:52:40.993Z,93872.84
2022-11-20T18:55:09.289Z,93870.75
2022-11-20T18:57:36.190Z,93865.09
2022-11-20T19:00:08.918Z,93867.25
2022-11-20T19:02:41.648Z,93869.53
2022-11-20T19:05:14.714Z,93866.94
2022-11-20T19:07:42.879Z,93850.97
2022-11-20T19:10:10.238Z,93846.75
2022-11-20T19:12:37.980Z,93865.66
2022-11-20T19:15:05.671Z,93858.34
2022-11-20T19:17:33.837Z,93855.06
2022-11-20T19:20:01.010Z,93854.41
2022-11-20T19:22:27.747Z,93853.47
2022-11-20T19:24:54.463Z,93835.66
2022-11-20T19:27:21.418Z,93836.66
2022-11-20T19:29:48.187Z,93859.69
2022-11-20T19:32:15.059Z,93854.47
2022-11-20T19:34:44.744Z,93862.66
2022-11-20T19:37:11.448Z,93863.75
2022-11-20T19:39:38.344Z,93865.56
2022-11-20T19:42:05.267Z,93867.34
2022-11-20T19:44:33.123Z,93863.88
2022-11-20T19:47:00.777Z,93864.38
2022-11-20T19:49:27.527Z,93859.63
2022-11-20T19:51:54.284Z,93872.66
2022-11-20T19:54:21.038Z,93863.75
2022-11-20T19:56:49.557Z,93862.81
2022-11-20T19:59:16.735Z,93865.69
2022-11-20T20:01:43.850Z,93863.03
2022-11-20T20:04:10.683Z,93866.63
2022-11-20T20:06:41.776Z,93866.47
2022-11-20T20:09:12.189Z,93869.84
2022-11-20T20:11:39.962Z,93865.59
2022-11-20T20:14:14.753Z,93857.00
2022-11-20T20:16:42.300Z,93857.72
2022-11-20T20:19:13.900Z,93847.91
2022-11-20T20:21:41.545Z,93861.22
2022-11-20T20:24:09.162Z,93865.09
2022-11-20T20:26:35.963Z,93858.94
2022-11-20T20:29:03.551Z,93873.88
2022-11-20T20:31:32.049Z,93877.75
2022-11-20T20:33:59.009Z,93870.38
2022-11-20T20:36:26.632Z,93876.63
2022-11-20T20:38:59.818Z,93867.50
2022-11-20T20:41:27.150Z,93870.75
2022-11-20T20:44:13.290Z,93861.69
2022-11-20T20:46:41.332Z,93867.25
2022-11-20T20:49:08.815Z,93868.50
2022-11-20T20:51:35.935Z,93864.16
2022-11-20T20:54:02.861Z,93876.19
2022-11-20T20:56:29.575Z,93882.38
2022-11-20T20:58:56.403Z,93871.56
2022-11-20T21:01:25.740Z,93885.78
2022-11-20T21:03:52.525Z,93892.91
2022-11-20T21:06:19.282Z,93894.41
2022-11-20T21:08:46.072Z,93893.72
2022-11-20T21:11:15.812Z,93894.53
2022-11-20T21:13:44.543Z,93897.06
2022-11-20T21:16:13.404Z,93899.69
2022-11-20T21:18:40.132Z,93903.25
2022-11-20T21:21:30.464Z,93896.66
2022-11-20T21:23:57.401Z,93910.81
2022-11-20T21:26:29.520Z,93918.50
2022-11-20T21:28:57.778Z,93915.91
2022-11-20T21:31:26.891Z,93901.53
2022-11-20T21:33:56.588Z,93922.75
2022-11-20T21:36:29.004Z,93930.09
2022-11-20T21:38:57.601Z,93932.72
2022-11-20T21:41:27.214Z,93930.63
2022-11-20T21:44:29.176Z,93932.44
2022-11-20T21:46:45.065Z,93925.88
2022-11-20T21:49:12.800Z,93911.59
2022-11-20T21:51:39.600Z,93903.03
2022-11-20T21:54:06.329Z,93909.75
2022-11-20T21:56:33.057Z,93901.41
2022-11-20T21:58:59.804Z,93902.06
2022-11-20T22:01:29.733Z,93904.00
2022-11-20T22:03:59.821Z,93912.94
2022-11-20T22:06:32.742Z,93908.91
2022-11-20T22:09:00.164Z,93911.00
2022-11-20T22:11:27.157Z,93917.31
2022-11-20T22:14:12.550Z,93903.78
2022-11-20T22:16:39.270Z,93915.00
2022-11-20T22:19:07.109Z,93910.41
2022-11-20T22:21:34.588Z,93920.88
2022-11-20T22:24:01.819Z,93918.41
2022-11-20T22:26:39.918Z,93905.88
2022-11-20T22:29:08.351Z,93908.00
2022-11-20T22:31:35.086Z,93916.63
2022-11-20T22:34:02.928Z,93909.75
2022-11-20T22:36:32.022Z,93910.81
2022-11-20T22:38:59.220Z,93912.09
2022-11-20T22:41:28.494Z,93901.06
2022-11-20T22:43:57.696Z,93917.91
2022-11-20T22:46:26.412Z,93922.75
2022-11-20T22:48:58.955Z,93926.97
2022-11-20T22:51:28.849Z,93918.28
2022-11-20T22:53:55.700Z,93911.00
2022-11-20T22:56:22.859Z,93902.88
2022-11-20T22:58:52.091Z,93915.47
2022-11-20T23:01:27.098Z,93902.34
2022-11-20T23:04:00.586Z,93911.06
2022-11-20T23:06:27.976Z,93910.53
2022-11-20T23:08:55.479Z,93922.69
2022-11-20T23:11:28.721Z,93925.88
2022-11-20T23:14:01.917Z,93920.75
2022-11-20T23:16:30.388Z,93927.28
2022-11-20T23:19:08.679Z,93932.50
2022-11-20T23:21:37.533Z,93942.38
2022-11-20T23:24:05.547Z,93929.38
2022-11-20T23:26:36.479Z,93933.59
2022-11-20T23:29:04.979Z,93937.25
2022-11-20T23:31:34.079Z,93932.03
2022-11-20T23:34:01.224Z,93937.91
2022-11-20T23:36:28.031Z,93928.09
2022-11-20T23:38:54.739Z,93929.31
2022-11-20T23:41:21.517Z,93929.06
2022-11-20T23:43:48.292Z,93943.78
2022-11-20T23:46:16.807Z,93939.91
2022-11-20T23:48:45.343Z,93946.91
2022-11-20T23:51:13.293Z,93942.44
2022-11-20T23:53:40.366Z,93941.31
2022-11-20T23:56:07.428Z,93935.31
2022-11-20T23:58:38.225Z,93931.75
